createdAt,value
2022-12-28T00:04:54.476Z,-2.86
2022-12-28T00:09:56.956Z,-2.84
2022-12-28T00:15:00.061Z,-2.84
2022-12-28T00:20:02.595Z,-2.85
2022-12-28T00:25:06.044Z,-2.96
2022-12-28T00:30:09.223Z,-2.94
2022-12-28T00:35:11.809Z,-2.91
2022-12-28T00:40:18.913Z,-2.99
2022-12-28T00:45:24.698Z,-2.97
2022-12-28T00:50:27.303Z,-2.89
2022-12-28T00:55:29.919Z,-2.91
2022-12-28T01:00:33.714Z,-2.90
2022-12-28T01:05:40.059Z,-2.89
2022-12-28T01:10:44.224Z,-2.91
2022-12-28T01:15:47.818Z,-2.96
2022-12-28T01:20:50.776Z,-2.90
2022-12-28T01:25:53.232Z,-2.91
2022-12-28T01:30:55.871Z,-2.97
2022-12-28T01:35:58.409Z,-2.95
2022-12-28T01:41:01.275Z,-2.96
2022-12-28T01:46:06.951Z,-2.98
2022-12-28T01:51:09.548Z,-3.00
2022-12-28T01:56:15.306Z,-2.98
2022-12-28T02:01:18.089Z,-2.93
2022-12-28T02:06:20.796Z,-2.92
2022-12-28T02:11:23.538Z,-2.95
2022-12-28T02:16:26.431Z,-2.83
2022-12-28T02:21:31.719Z,-2.85
2022-12-28T02:27:20.216Z,-2.87
2022-12-28T02:32:53.037Z,-2.86
2022-12-28T02:38:02.560Z,-2.89
2022-12-28T02:43:05.446Z,-2.90
2022-12-28T02:48:30.476Z,-2.91
2022-12-28T02:53:48.727Z,-2.96
2022-12-28T02:59:11.395Z,-2.90
2022-12-28T03:04:26.635Z,-2.86
2022-12-28T03:09:42.111Z,-2.89
2022-12-28T03:14:55.098Z,-2.87
2022-12-28T03:20:22.376Z,-2.85
2022-12-28T03:25:46.818Z,-2.81
2022-12-28T03:31:09.235Z,-2.89
2022-12-28T03:36:29.269Z,-2.81
2022-12-28T03:41:38.784Z,-2.83
2022-12-28T03:47:10.912Z,-2.82
2022-12-28T03:52:14.116Z,-2.85
2022-12-28T03:57:17.272Z,-2.88
2022-12-28T04:02:23.768Z,-2.72
2022-12-28T04:07:26.336Z,-2.72
2022-12-28T04:12:29.886Z,-2.67
2022-12-28T04:18:05.169Z,-2.67
2022-12-28T04:23:08.419Z,-2.63
2022-12-28T04:28:11.006Z,-2.65
2022-12-28T04:33:37.151Z,-2.59
2022-12-28T04:38:40.449Z,-2.56
2022-12-28T04:43:45.982Z,-2.48
2022-12-28T04:48:48.604Z,-2.42
2022-12-28T04:53:52.163Z,-2.41
2022-12-28T04:59:00.515Z,-2.33
2022-12-28T05:04:03.243Z,-2.29
2022-12-28T05:09:05.800Z,-2.19
2022-12-28T05:14:08.256Z,-2.21
2022-12-28T05:19:10.810Z,-2.11
2022-12-28T05:24:13.342Z,-2.09
2022-12-28T05:29:15.899Z,-2.01
2022-12-28T05:34:18.435Z,-1.89
2022-12-28T05:39:20.910Z,-1.91
2022-12-28T05:44:26.554Z,-1.82
2022-12-28T05:49:32.047Z,-1.75
2022-12-28T05:54:34.559Z,-1.74
2022-12-28T05:59:37.562Z,-1.77
2022-12-28T06:04:40.685Z,-1.53
2022-12-28T06:09:43.200Z,-1.41
2022-12-28T06:14:45.739Z,-1.35
2022-12-28T06:19:50.823Z,-1.36
2022-12-28T06:24:56.835Z,-1.23
2022-12-28T06:30:00.201Z,-1.06
2022-12-28T06:35:05.930Z,-0.94
2022-12-28T06:40:08.824Z,-0.87
2022-12-28T06:45:13.966Z,-0.74
2022-12-28T06:50:16.505Z,-0.69
2022-12-28T06:55:18.998Z,-0.57
2022-12-28T07:00:22.777Z,-0.54
2022-12-28T07:05:25.441Z,-0.45
2022-12-28T07:10:27.907Z,-0.41
2022-12-28T07:15:38.194Z,-0.40
2022-12-28T07:21:12.967Z,-0.27
2022-12-28T07:26:36.858Z,-0.16
2022-12-28T07:31:52.034Z,-0.10
2022-12-28T07:37:30.152Z,0.10
2022-12-28T07:42:35.609Z,0.22
2022-12-28T07:47:43.716Z,0.16
2022-12-28T07:52:47.126Z,0.21
2022-12-28T07:57:53.771Z,0.20
2022-12-28T08:03:03.277Z,0.24
2022-12-28T08:08:27.349Z,0.37
2022-12-28T08:13:32.106Z,0.42
2022-12-28T08:18:39.445Z,0.44
2022-12-28T08:23:42.263Z,0.43
2022-12-28T08:28:46.299Z,0.48
2022-12-28T08:34:28.792Z,0.57
2022-12-28T08:39:31.275Z,0.59
2022-12-28T08:50:36.295Z,0.70
2022-12-28T08:55:39.024Z,0.68
2022-12-28T09:00:41.596Z,0.68
2022-12-28T09:05:44.077Z,0.66
2022-12-28T09:10:49.151Z,0.72
2022-12-28T09:16:03.353Z,0.81
2022-12-28T09:21:32.732Z,0.88
2022-12-28T09:26:37.549Z,0.85
2022-12-28T09:31:41.506Z,0.82
2022-12-28T09:36:45.876Z,0.84
2022-12-28T09:41:57.369Z,0.86
2022-12-28T09:47:16.969Z,0.92
2022-12-28T09:53:06.185Z,0.97
2022-12-28T09:58:17.221Z,0.98
2022-12-28T10:04:01.925Z,0.95
2022-12-28T10:14:34.592Z,1.09
2022-12-28T10:19:37.605Z,1.19
2022-12-28T10:24:43.324Z,1.14
2022-12-28T10:36:35.792Z,1.16
2022-12-28T10:42:03.404Z,1.20
2022-12-28T10:48:06.840Z,1.26
2022-12-28T10:54:05.650Z,1.27
2022-12-28T10:59:13.509Z,1.21
2022-12-28T11:04:22.172Z,1.30
2022-12-28T11:09:29.817Z,1.32
2022-12-28T11:14:37.781Z,1.30
2022-12-28T11:19:40.306Z,1.26
2022-12-28T11:24:42.808Z,1.32
2022-12-28T11:29:48.285Z,1.33
2022-12-28T11:34:53.498Z,1.30
2022-12-28T11:39:56.231Z,1.38
2022-12-28T11:45:00.264Z,1.48
2022-12-28T11:50:34.834Z,1.60
2022-12-28T11:55:47.267Z,1.46
2022-12-28T12:00:50.384Z,1.56
2022-12-28T12:05:53.113Z,1.64
2022-12-28T12:11:22.141Z,1.57
2022-12-28T12:16:41.855Z,1.57
2022-12-28T12:21:52.414Z,1.62
2022-12-28T12:27:02.633Z,1.71
2022-12-28T12:32:23.356Z,1.70
2022-12-28T12:37:51.903Z,1.78
2022-12-28T12:43:23.484Z,1.86
2022-12-28T12:49:10.399Z,1.92
2022-12-28T12:54:34.232Z,1.96
2022-12-28T12:59:44.812Z,2.05
2022-12-28T13:04:50.340Z,2.07
2022-12-28T13:09:55.949Z,2.03
2022-12-28T13:15:09.118Z,2.01
2022-12-28T13:20:21.973Z,2.01
2022-12-28T13:25:32.951Z,2.10
2022-12-28T13:30:35.824Z,2.11
2022-12-28T13:35:38.564Z,2.32
2022-12-28T13:40:49.344Z,2.39
2022-12-28T13:46:00.611Z,2.46
2022-12-28T13:51:04.210Z,2.45
2022-12-28T13:56:07.796Z,2.45
2022-12-28T14:01:20.063Z,2.48
2022-12-28T14:06:22.814Z,2.51
2022-12-28T14:11:26.004Z,2.43
2022-12-28T14:16:30.294Z,2.46
2022-12-28T14:21:51.049Z,2.49
2022-12-28T14:26:59.464Z,2.42
2022-12-28T14:32:06.873Z,2.31
2022-12-28T14:37:28.663Z,2.37
2022-12-28T14:42:31.811Z,2.37
2022-12-28T14:47:36.945Z,2.44
2022-12-28T14:52:45.483Z,2.40
2022-12-28T14:57:51.798Z,2.48
2022-12-28T15:02:55.808Z,2.47
2022-12-28T15:07:59.369Z,2.45
2022-12-28T15:13:02.861Z,2.43
2022-12-28T15:18:05.664Z,2.46
2022-12-28T15:23:09.110Z,2.56
2022-12-28T15:28:11.804Z,2.50
2022-12-28T15:33:14.526Z,2.47
2022-12-28T15:38:17.162Z,2.46
2022-12-28T15:43:20.030Z,2.43
2022-12-28T15:48:23.252Z,2.48
2022-12-28T15:53:25.957Z,2.38
2022-12-28T15:58:29.520Z,2.41
2022-12-28T16:03:32.093Z,2.40
2022-12-28T16:08:34.640Z,2.35
2022-12-28T16:13:39.194Z,2.33
2022-12-28T16:18:42.017Z,2.34
2022-12-28T16:23:45.643Z,2.31
2022-12-28T16:28:50.777Z,2.29
2022-12-28T16:34:17.355Z,2.21
2022-12-28T16:39:21.213Z,2.22
2022-12-28T16:44:27.112Z,2.19
2022-12-28T16:49:32.689Z,2.13
2022-12-28T16:54:38.132Z,2.12
2022-12-28T16:59:40.638Z,2.06
2022-12-28T17:04:46.377Z,2.04
2022-12-28T17:09:50.435Z,2.02
2022-12-28T17:14:53.347Z,2.02
2022-12-28T17:19:56.559Z,1.97
2022-12-28T17:24:59.386Z,1.86
2022-12-28T17:30:01.985Z,1.94
2022-12-28T17:35:05.731Z,1.87
2022-12-28T17:40:08.932Z,1.86
2022-12-28T17:45:12.307Z,1.82
2022-12-28T17:50:14.934Z,1.73
2022-12-28T17:55:20.437Z,1.75
2022-12-28T18:00:23.067Z,1.74
2022-12-28T18:05:25.608Z,1.69
2022-12-28T18:10:28.152Z,1.67
2022-12-28T18:15:34.152Z,1.64
2022-12-28T18:20:36.711Z,1.53
2022-12-28T18:25:39.457Z,1.54
2022-12-28T18:30:42.473Z,1.50
2022-12-28T18:35:45.051Z,1.59
2022-12-28T18:40:55.757Z,1.60
2022-12-28T18:46:01.227Z,1.53
2022-12-28T18:51:15.603Z,1.57
2022-12-28T18:56:22.128Z,1.54
2022-12-28T19:06:52.421Z,1.58
2022-12-28T19:11:55.731Z,1.59
2022-12-28T19:16:58.247Z,1.56
2022-12-28T19:22:03.478Z,1.54
2022-12-28T19:27:05.985Z,1.54
2022-12-28T19:32:08.500Z,1.54
2022-12-28T19:37:11.024Z,1.48
2022-12-28T19:42:13.488Z,1.50
2022-12-28T19:47:16.371Z,1.50
2022-12-28T19:52:20.148Z,1.47
2022-12-28T19:57:22.620Z,1.48
2022-12-28T20:02:25.327Z,1.48
2022-12-28T20:07:27.885Z,1.43
2022-12-28T20:12:30.349Z,1.26
2022-12-28T20:17:34.241Z,1.07
2022-12-28T20:22:40.826Z,0.89
2022-12-28T20:27:43.325Z,0.70
2022-12-28T20:32:45.807Z,0.67
2022-12-28T20:37:48.317Z,0.76
2022-12-28T20:43:09.200Z,0.83
2022-12-28T20:48:11.778Z,0.95
2022-12-28T20:53:15.399Z,1.06
2022-12-28T20:58:19.263Z,1.10
2022-12-28T21:03:21.927Z,1.15
2022-12-28T21:08:30.405Z,1.22
2022-12-28T21:13:33.714Z,1.25
2022-12-28T21:18:36.301Z,1.23
2022-12-28T21:23:38.820Z,1.23
2022-12-28T21:28:41.833Z,1.26
2022-12-28T21:33:47.331Z,1.12
2022-12-28T21:38:49.868Z,1.27
2022-12-28T21:43:52.479Z,1.39
2022-12-28T21:48:55.396Z,1.36
2022-12-28T21:54:07.045Z,1.33
2022-12-28T21:59:11.359Z,1.33
2022-12-28T22:04:35.499Z,1.33
2022-12-28T22:09:57.057Z,1.32
2022-12-28T22:15:17.906Z,1.33
2022-12-28T22:20:20.393Z,1.32
2022-12-28T22:25:26.322Z,1.32
2022-12-28T22:30:30.160Z,1.32
2022-12-28T22:35:33.248Z,1.30
2022-12-28T22:40:35.733Z,1.29
2022-12-28T22:45:38.906Z,1.22
2022-12-28T22:50:43.307Z,1.22
2022-12-28T22:55:45.921Z,1.23
2022-12-28T23:00:48.416Z,1.22
2022-12-28T23:05:52.275Z,1.17
2022-12-28T23:11:03.774Z,1.14
2022-12-28T23:16:06.384Z,1.17
2022-12-28T23:21:34.654Z,1.18
2022-12-28T23:26:55.727Z,1.14
2022-12-28T23:31:59.846Z,1.05
2022-12-28T23:37:02.524Z,1.07
2022-12-28T23:42:05.089Z,1.04
2022-12-28T23:47:07.903Z,1.04
2022-12-28T23:52:10.749Z,1.01
2022-12-28T23:57:13.237Z,1.00
